sensor_id;sensor_type;location;lat;lon;timestamp;temperature;humidity
15083;DHT22;7640;53.116;6.878;2023-03-21T00:01:50;10.50;99.90
15083;DHT22;7640;53.116;6.878;2023-03-21T00:04:20;10.50;99.90
15083;DHT22;7640;53.116;6.878;2023-03-21T00:06:48;10.60;99.90
15083;DHT22;7640;53.116;6.878;2023-03-21T00:09:17;10.50;99.90
15083;DHT22;7640;53.116;6.878;2023-03-21T00:11:47;10.60;99.90
15083;DHT22;7640;53.116;6.878;2023-03-21T00:14:15;10.60;99.90
15083;DHT22;7640;53.116;6.878;2023-03-21T00:16:45;10.60;99.90
15083;DHT22;7640;53.116;6.878;2023-03-21T00:19:19;10.60;99.90
15083;DHT22;7640;53.116;6.878;2023-03-21T00:21:47;10.60;99.90
15083;DHT22;7640;53.116;6.878;2023-03-21T00:24:35;10.60;99.90
15083;DHT22;7640;53.116;6.878;2023-03-21T00:27:05;10.60;99.90
15083;DHT22;7640;53.116;6.878;2023-03-21T00:29:54;10.60;99.90
15083;DHT22;7640;53.116;6.878;2023-03-21T00:32:23;10.60;99.90
15083;DHT22;7640;53.116;6.878;2023-03-21T00:34:53;10.60;99.90
15083;DHT22;7640;53.116;6.878;2023-03-21T00:37:42;10.60;99.90
15083;DHT22;7640;53.116;6.878;2023-03-21T00:40:11;10.60;99.90
15083;DHT22;7640;53.116;6.878;2023-03-21T00:42:59;10.60;99.90
15083;DHT22;7640;53.116;6.878;2023-03-21T00:45:28;10.60;99.90
15083;DHT22;7640;53.116;6.878;2023-03-21T00:47:56;10.60;99.90
15083;DHT22;7640;53.116;6.878;2023-03-21T00:50:27;10.60;99.90
15083;DHT22;7640;53.116;6.878;2023-03-21T00:52:56;10.60;99.90
15083;DHT22;7640;53.116;6.878;2023-03-21T00:55:29;10.60;99.90
15083;DHT22;7640;53.116;6.878;2023-03-21T00:58:01;10.60;99.90
15083;DHT22;7640;53.116;6.878;2023-03-21T01:00:30;10.60;99.90
15083;DHT22;7640;53.116;6.878;2023-03-21T01:03:02;10.60;99.90
15083;DHT22;7640;53.116;6.878;2023-03-21T01:05:51;10.60;99.90
15083;DHT22;7640;53.116;6.878;2023-03-21T01:08:34;10.60;99.90
15083;DHT22;7640;53.116;6.878;2023-03-21T01:11:20;10.60;99.90
15083;DHT22;7640;53.116;6.878;2023-03-21T01:13:50;10.60;99.90
15083;DHT22;7640;53.116;6.878;2023-03-21T01:16:30;10.60;99.90
15083;DHT22;7640;53.116;6.878;2023-03-21T01:18:59;10.60;99.90
15083;DHT22;7640;53.116;6.878;2023-03-21T01:21:34;10.60;99.90
15083;DHT22;7640;53.116;6.878;2023-03-21T01:24:03;10.60;99.90
15083;DHT22;7640;53.116;6.878;2023-03-21T01:26:32;10.60;99.90
15083;DHT22;7640;53.116;6.878;2023-03-21T01:29:05;10.60;99.90
15083;DHT22;7640;53.116;6.878;2023-03-21T01:31:34;10.60;99.90
15083;DHT22;7640;53.116;6.878;2023-03-21T01:34:02;10.60;99.90
15083;DHT22;7640;53.116;6.878;2023-03-21T01:36:39;10.60;99.90
15083;DHT22;7640;53.116;6.878;2023-03-21T01:39:08;10.60;99.90
15083;DHT22;7640;53.116;6.878;2023-03-21T01:41:39;10.60;99.90
15083;DHT22;7640;53.116;6.878;2023-03-21T01:44:14;10.60;99.90
15083;DHT22;7640;53.116;6.878;2023-03-21T01:46:44;10.60;99.90
15083;DHT22;7640;53.116;6.878;2023-03-21T01:49:32;10.60;99.90
15083;DHT22;7640;53.116;6.878;2023-03-21T01:52:09;10.70;99.90
15083;DHT22;7640;53.116;6.878;2023-03-21T01:54:54;10.60;99.90
15083;DHT22;7640;53.116;6.878;2023-03-21T01:57:27;10.60;99.90
15083;DHT22;7640;53.116;6.878;2023-03-21T02:00:11;10.70;99.90
15083;DHT22;7640;53.116;6.878;2023-03-21T02:02:43;10.70;99.90
15083;DHT22;7640;53.116;6.878;2023-03-21T02:05:21;10.70;99.90
15083;DHT22;7640;53.116;6.878;2023-03-21T02:07:54;10.70;99.90
15083;DHT22;7640;53.116;6.878;2023-03-21T02:10:23;10.70;99.90
15083;DHT22;7640;53.116;6.878;2023-03-21T02:12:53;10.70;99.90
15083;DHT22;7640;53.116;6.878;2023-03-21T02:15:25;10.70;99.90
15083;DHT22;7640;53.116;6.878;2023-03-21T02:17:57;10.70;99.90
15083;DHT22;7640;53.116;6.878;2023-03-21T02:21:18;10.70;99.90
15083;DHT22;7640;53.116;6.878;2023-03-21T02:27:40;10.70;99.90
15083;DHT22;7640;53.116;6.878;2023-03-21T02:30:48;10.70;99.90
15083;DHT22;7640;53.116;6.878;2023-03-21T02:34:16;10.70;99.90
15083;DHT22;7640;53.116;6.878;2023-03-21T02:37:19;10.70;99.90
15083;DHT22;7640;53.116;6.878;2023-03-21T02:40:07;10.70;99.90
15083;DHT22;7640;53.116;6.878;2023-03-21T02:42:52;10.70;99.90
15083;DHT22;7640;53.116;6.878;2023-03-21T02:45:31;10.70;99.90
15083;DHT22;7640;53.116;6.878;2023-03-21T02:48:06;10.70;99.90
15083;DHT22;7640;53.116;6.878;2023-03-21T02:50:53;10.70;99.90
15083;DHT22;7640;53.116;6.878;2023-03-21T02:53:29;10.70;99.90
15083;DHT22;7640;53.116;6.878;2023-03-21T02:56:01;10.70;99.90
15083;DHT22;7640;53.116;6.878;2023-03-21T02:58:33;10.70;99.90
15083;DHT22;7640;53.116;6.878;2023-03-21T03:01:03;10.70;99.90
15083;DHT22;7640;53.116;6.878;2023-03-21T03:03:32;10.70;99.90
15083;DHT22;7640;53.116;6.878;2023-03-21T03:06:03;10.70;99.90
15083;DHT22;7640;53.116;6.878;2023-03-21T03:08:41;10.70;99.90
15083;DHT22;7640;53.116;6.878;2023-03-21T03:11:30;10.80;99.90
15083;DHT22;7640;53.116;6.878;2023-03-21T03:14:19;10.70;99.90
15083;DHT22;7640;53.116;6.878;2023-03-21T03:17:29;10.80;99.90
15083;DHT22;7640;53.116;6.878;2023-03-21T03:20:20;10.80;99.90
15083;DHT22;7640;53.116;6.878;2023-03-21T03:22:59;10.80;99.90
15083;DHT22;7640;53.116;6.878;2023-03-21T03:25:38;10.80;99.90
15083;DHT22;7640;53.116;6.878;2023-03-21T03:28:12;10.80;99.90
15083;DHT22;7640;53.116;6.878;2023-03-21T03:30:45;10.80;99.90
15083;DHT22;7640;53.116;6.878;2023-03-21T03:33:35;10.80;99.90
15083;DHT22;7640;53.116;6.878;2023-03-21T03:36:08;10.80;99.90
15083;DHT22;7640;53.116;6.878;2023-03-21T03:38:57;10.80;99.90
15083;DHT22;7640;53.116;6.878;2023-03-21T03:41:28;10.80;99.90
15083;DHT22;7640;53.116;6.878;2023-03-21T03:44:18;10.80;99.90
15083;DHT22;7640;53.116;6.878;2023-03-21T03:46:50;10.80;99.90
15083;DHT22;7640;53.116;6.878;2023-03-21T03:49:23;10.80;99.90
15083;DHT22;7640;53.116;6.878;2023-03-21T03:51:56;10.80;99.90
15083;DHT22;7640;53.116;6.878;2023-03-21T03:54:30;10.80;99.90
15083;DHT22;7640;53.116;6.878;2023-03-21T03:57:01;10.80;99.90
15083;DHT22;7640;53.116;6.878;2023-03-21T03:59:33;10.90;99.90
15083;DHT22;7640;53.116;6.878;2023-03-21T04:02:04;10.90;99.90
15083;DHT22;7640;53.116;6.878;2023-03-21T04:04:32;10.90;99.90
15083;DHT22;7640;53.116;6.878;2023-03-21T04:07:02;10.90;99.90
15083;DHT22;7640;53.116;6.878;2023-03-21T04:09:32;10.90;99.90
15083;DHT22;7640;53.116;6.878;2023-03-21T04:12:11;10.90;99.90
15083;DHT22;7640;53.116;6.878;2023-03-21T04:14:40;10.90;99.90
15083;DHT22;7640;53.116;6.878;2023-03-21T04:17:13;10.90;99.90
15083;DHT22;7640;53.116;6.878;2023-03-21T04:19:42;10.90;99.90
15083;DHT22;7640;53.116;6.878;2023-03-21T04:22:11;10.90;99.90
15083;DHT22;7640;53.116;6.878;2023-03-21T04:24:40;10.90;99.90
15083;DHT22;7640;53.116;6.878;2023-03-21T04:27:10;11.00;99.90
15083;DHT22;7640;53.116;6.878;2023-03-21T04:29:40;11.00;99.90
15083;DHT22;7640;53.116;6.878;2023-03-21T04:32:09;10.90;99.90
15083;DHT22;7640;53.116;6.878;2023-03-21T04:34:42;10.90;99.90
15083;DHT22;7640;53.116;6.878;2023-03-21T04:37:16;10.90;99.90
15083;DHT22;7640;53.116;6.878;2023-03-21T04:39:45;11.00;99.90
15083;DHT22;7640;53.116;6.878;2023-03-21T04:42:16;10.90;99.90
15083;DHT22;7640;53.116;6.878;2023-03-21T04:44:45;10.90;99.90
15083;DHT22;7640;53.116;6.878;2023-03-21T04:47:16;10.90;99.90
15083;DHT22;7640;53.116;6.878;2023-03-21T04:49:46;10.90;99.90
15083;DHT22;7640;53.116;6.878;2023-03-21T04:52:15;10.90;99.90
15083;DHT22;7640;53.116;6.878;2023-03-21T04:54:44;10.90;99.90
15083;DHT22;7640;53.116;6.878;2023-03-21T04:57:12;10.90;99.90
15083;DHT22;7640;53.116;6.878;2023-03-21T04:59:43;10.90;99.90
15083;DHT22;7640;53.116;6.878;2023-03-21T05:02:12;10.90;99.90
15083;DHT22;7640;53.116;6.878;2023-03-21T05:04:41;10.90;99.90
15083;DHT22;7640;53.116;6.878;2023-03-21T05:07:10;10.90;99.90
15083;DHT22;7640;53.116;6.878;2023-03-21T05:09:38;10.90;99.90
15083;DHT22;7640;53.116;6.878;2023-03-21T05:12:07;10.90;99.90
15083;DHT22;7640;53.116;6.878;2023-03-21T05:14:36;10.90;99.90
15083;DHT22;7640;53.116;6.878;2023-03-21T05:17:05;10.90;99.90
15083;DHT22;7640;53.116;6.878;2023-03-21T05:19:33;10.80;99.90
15083;DHT22;7640;53.116;6.878;2023-03-21T05:22:04;10.80;99.90
15083;DHT22;7640;53.116;6.878;2023-03-21T05:24:35;10.80;99.90
15083;DHT22;7640;53.116;6.878;2023-03-21T05:27:05;10.90;99.90
15083;DHT22;7640;53.116;6.878;2023-03-21T05:29:34;10.90;99.90
15083;DHT22;7640;53.116;6.878;2023-03-21T05:32:04;10.80;99.90
15083;DHT22;7640;53.116;6.878;2023-03-21T05:34:33;10.80;99.90
15083;DHT22;7640;53.116;6.878;2023-03-21T05:37:01;10.90;99.90
15083;DHT22;7640;53.116;6.878;2023-03-21T05:39:30;10.80;99.90
15083;DHT22;7640;53.116;6.878;2023-03-21T05:41:58;10.80;99.90
15083;DHT22;7640;53.116;6.878;2023-03-21T05:44:27;10.80;99.90
15083;DHT22;7640;53.116;6.878;2023-03-21T05:46:56;10.80;99.90
15083;DHT22;7640;53.116;6.878;2023-03-21T05:49:25;10.80;99.90
15083;DHT22;7640;53.116;6.878;2023-03-21T05:51:54;10.90;99.90
15083;DHT22;7640;53.116;6.878;2023-03-21T05:54:26;10.90;99.90
15083;DHT22;7640;53.116;6.878;2023-03-21T05:56:55;10.80;99.90
15083;DHT22;7640;53.116;6.878;2023-03-21T05:59:23;10.80;99.90
15083;DHT22;7640;53.116;6.878;2023-03-21T06:01:53;10.80;99.90
15083;DHT22;7640;53.116;6.878;2023-03-21T06:04:22;10.80;99.90
15083;DHT22;7640;53.116;6.878;2023-03-21T06:06:52;10.80;99.90
15083;DHT22;7640;53.116;6.878;2023-03-21T06:09:21;10.80;99.90
15083;DHT22;7640;53.116;6.878;2023-03-21T06:11:53;10.80;99.90
15083;DHT22;7640;53.116;6.878;2023-03-21T06:14:23;10.80;99.90
15083;DHT22;7640;53.116;6.878;2023-03-21T06:16:53;10.80;99.90
15083;DHT22;7640;53.116;6.878;2023-03-21T06:19:22;10.80;99.90
15083;DHT22;7640;53.116;6.878;2023-03-21T06:21:52;10.80;99.90
15083;DHT22;7640;53.116;6.878;2023-03-21T06:24:20;10.80;99.90
15083;DHT22;7640;53.116;6.878;2023-03-21T06:26:49;10.90;99.90
15083;DHT22;7640;53.116;6.878;2023-03-21T06:29:17;10.80;99.90
15083;DHT22;7640;53.116;6.878;2023-03-21T06:31:46;10.90;99.90
15083;DHT22;7640;53.116;6.878;2023-03-21T06:34:14;10.90;99.90
15083;DHT22;7640;53.116;6.878;2023-03-21T06:36:43;10.90;99.90
15083;DHT22;7640;53.116;6.878;2023-03-21T06:39:13;10.90;99.90
15083;DHT22;7640;53.116;6.878;2023-03-21T06:41:42;10.90;99.90
15083;DHT22;7640;53.116;6.878;2023-03-21T06:44:11;10.90;99.90
15083;DHT22;7640;53.116;6.878;2023-03-21T06:46:39;10.90;99.90
15083;DHT22;7640;53.116;6.878;2023-03-21T06:49:08;10.90;99.90
15083;DHT22;7640;53.116;6.878;2023-03-21T06:51:37;10.90;99.90
15083;DHT22;7640;53.116;6.878;2023-03-21T06:54:05;10.90;99.90
15083;DHT22;7640;53.116;6.878;2023-03-21T06:56:35;10.90;99.90
15083;DHT22;7640;53.116;6.878;2023-03-21T06:59:04;10.90;99.90
15083;DHT22;7640;53.116;6.878;2023-03-21T07:01:32;10.90;99.90
15083;DHT22;7640;53.116;6.878;2023-03-21T07:04:01;10.90;99.90
15083;DHT22;7640;53.116;6.878;2023-03-21T07:06:30;10.90;99.90
15083;DHT22;7640;53.116;6.878;2023-03-21T07:09:01;10.90;99.90
15083;DHT22;7640;53.116;6.878;2023-03-21T07:11:32;10.90;99.90
15083;DHT22;7640;53.116;6.878;2023-03-21T07:14:11;10.90;99.90
15083;DHT22;7640;53.116;6.878;2023-03-21T07:16:40;10.90;99.90
15083;DHT22;7640;53.116;6.878;2023-03-21T07:19:09;10.90;99.90
15083;DHT22;7640;53.116;6.878;2023-03-21T07:21:37;11.00;99.90
15083;DHT22;7640;53.116;6.878;2023-03-21T07:24:06;10.90;99.90
15083;DHT22;7640;53.116;6.878;2023-03-21T07:26:36;10.90;99.90
15083;DHT22;7640;53.116;6.878;2023-03-21T07:29:04;10.90;99.90
15083;DHT22;7640;53.116;6.878;2023-03-21T07:31:33;10.90;99.90
15083;DHT22;7640;53.116;6.878;2023-03-21T07:34:02;11.00;99.90
15083;DHT22;7640;53.116;6.878;2023-03-21T07:36:31;11.00;99.90
15083;DHT22;7640;53.116;6.878;2023-03-21T07:39:00;11.00;99.90
15083;DHT22;7640;53.116;6.878;2023-03-21T07:41:30;11.00;99.90
15083;DHT22;7640;53.116;6.878;2023-03-21T07:44:00;11.00;99.90
15083;DHT22;7640;53.116;6.878;2023-03-21T07:46:29;11.00;99.90
15083;DHT22;7640;53.116;6.878;2023-03-21T07:48:58;11.00;99.90
15083;DHT22;7640;53.116;6.878;2023-03-21T07:51:27;11.00;99.90
15083;DHT22;7640;53.116;6.878;2023-03-21T07:53:56;11.10;99.90
15083;DHT22;7640;53.116;6.878;2023-03-21T07:56:24;11.10;99.90
15083;DHT22;7640;53.116;6.878;2023-03-21T07:58:53;11.10;99.90
15083;DHT22;7640;53.116;6.878;2023-03-21T08:01:24;11.20;99.90
15083;DHT22;7640;53.116;6.878;2023-03-21T08:03:53;11.20;99.90
15083;DHT22;7640;53.116;6.878;2023-03-21T08:06:22;11.20;99.90
15083;DHT22;7640;53.116;6.878;2023-03-21T08:08:50;11.20;99.90
15083;DHT22;7640;53.116;6.878;2023-03-21T08:11:19;11.20;99.90
15083;DHT22;7640;53.116;6.878;2023-03-21T08:13:48;11.20;99.90
15083;DHT22;7640;53.116;6.878;2023-03-21T08:16:17;11.20;99.90
15083;DHT22;7640;53.116;6.878;2023-03-21T08:18:47;11.30;99.90
15083;DHT22;7640;53.116;6.878;2023-03-21T08:21:15;11.20;99.90
15083;DHT22;7640;53.116;6.878;2023-03-21T08:23:43;11.20;99.90
15083;DHT22;7640;53.116;6.878;2023-03-21T08:26:12;11.20;99.90
15083;DHT22;7640;53.116;6.878;2023-03-21T08:28:41;11.20;99.90
15083;DHT22;7640;53.116;6.878;2023-03-21T08:31:11;11.20;99.90
15083;DHT22;7640;53.116;6.878;2023-03-21T08:33:39;11.20;99.90
15083;DHT22;7640;53.116;6.878;2023-03-21T08:36:10;11.20;99.90
15083;DHT22;7640;53.116;6.878;2023-03-21T08:38:38;11.20;99.90
15083;DHT22;7640;53.116;6.878;2023-03-21T08:41:07;11.20;99.90
15083;DHT22;7640;53.116;6.878;2023-03-21T08:43:36;11.20;99.90
15083;DHT22;7640;53.116;6.878;2023-03-21T08:46:05;11.20;99.90
15083;DHT22;7640;53.116;6.878;2023-03-21T08:48:34;11.20;99.90
15083;DHT22;7640;53.116;6.878;2023-03-21T08:51:05;11.20;99.90
15083;DHT22;7640;53.116;6.878;2023-03-21T08:53:35;11.20;99.90
15083;DHT22;7640;53.116;6.878;2023-03-21T08:56:04;11.20;99.90
15083;DHT22;7640;53.116;6.878;2023-03-21T08:58:32;11.20;99.90
15083;DHT22;7640;53.116;6.878;2023-03-21T09:01:01;11.20;99.90
15083;DHT22;7640;53.116;6.878;2023-03-21T09:03:30;11.20;99.90
15083;DHT22;7640;53.116;6.878;2023-03-21T09:05:58;11.30;99.90
15083;DHT22;7640;53.116;6.878;2023-03-21T09:08:28;11.30;99.90
15083;DHT22;7640;53.116;6.878;2023-03-21T09:10:58;11.30;99.90
15083;DHT22;7640;53.116;6.878;2023-03-21T09:13:27;11.30;99.90
15083;DHT22;7640;53.116;6.878;2023-03-21T09:15:56;11.30;99.90
15083;DHT22;7640;53.116;6.878;2023-03-21T09:18:27;11.30;99.90
15083;DHT22;7640;53.116;6.878;2023-03-21T09:21:10;11.30;99.90
15083;DHT22;7640;53.116;6.878;2023-03-21T09:23:40;11.30;99.90
15083;DHT22;7640;53.116;6.878;2023-03-21T09:26:12;11.30;99.90
15083;DHT22;7640;53.116;6.878;2023-03-21T09:28:42;11.30;99.90
15083;DHT22;7640;53.116;6.878;2023-03-21T09:31:12;11.30;99.90
15083;DHT22;7640;53.116;6.878;2023-03-21T09:33:42;11.30;99.90
15083;DHT22;7640;53.116;6.878;2023-03-21T09:36:11;11.30;99.90
15083;DHT22;7640;53.116;6.878;2023-03-21T09:38:40;11.30;99.90
15083;DHT22;7640;53.116;6.878;2023-03-21T09:41:24;11.30;99.90
15083;DHT22;7640;53.116;6.878;2023-03-21T09:44:21;11.30;99.90
15083;DHT22;7640;53.116;6.878;2023-03-21T09:47:00;11.30;99.90
15083;DHT22;7640;53.116;6.878;2023-03-21T09:49:33;11.30;99.90
15083;DHT22;7640;53.116;6.878;2023-03-21T09:52:09;11.40;99.90
15083;DHT22;7640;53.116;6.878;2023-03-21T09:54:41;11.40;99.90
15083;DHT22;7640;53.116;6.878;2023-03-21T09:57:19;11.50;99.90
15083;DHT22;7640;53.116;6.878;2023-03-21T09:59:55;11.50;99.90
15083;DHT22;7640;53.116;6.878;2023-03-21T10:02:35;11.50;99.90
15083;DHT22;7640;53.116;6.878;2023-03-21T10:05:12;11.50;99.90
15083;DHT22;7640;53.116;6.878;2023-03-21T10:07:48;11.50;99.90
15083;DHT22;7640;53.116;6.878;2023-03-21T10:10:22;11.50;99.90
15083;DHT22;7640;53.116;6.878;2023-03-21T10:12:56;11.50;99.90
15083;DHT22;7640;53.116;6.878;2023-03-21T10:15:25;11.40;99.90
15083;DHT22;7640;53.116;6.878;2023-03-21T10:17:59;11.40;99.90
15083;DHT22;7640;53.116;6.878;2023-03-21T10:20:30;11.40;99.90
15083;DHT22;7640;53.116;6.878;2023-03-21T10:23:03;11.40;99.90
15083;DHT22;7640;53.116;6.878;2023-03-21T10:25:34;11.30;99.90
15083;DHT22;7640;53.116;6.878;2023-03-21T10:28:07;11.30;99.90
15083;DHT22;7640;53.116;6.878;2023-03-21T10:30:40;11.20;99.90
15083;DHT22;7640;53.116;6.878;2023-03-21T10:33:13;11.20;99.90
15083;DHT22;7640;53.116;6.878;2023-03-21T10:35:45;11.20;99.90
15083;DHT22;7640;53.116;6.878;2023-03-21T10:38:18;11.20;99.90
15083;DHT22;7640;53.116;6.878;2023-03-21T10:40:47;11.10;99.90
15083;DHT22;7640;53.116;6.878;2023-03-21T10:43:30;11.20;99.90
15083;DHT22;7640;53.116;6.878;2023-03-21T10:46:10;11.10;99.90
15083;DHT22;7640;53.116;6.878;2023-03-21T10:48:40;11.10;99.90
15083;DHT22;7640;53.116;6.878;2023-03-21T10:51:17;11.10;99.90
15083;DHT22;7640;53.116;6.878;2023-03-21T10:53:50;11.10;99.90
15083;DHT22;7640;53.116;6.878;2023-03-21T10:56:24;11.10;99.90
15083;DHT22;7640;53.116;6.878;2023-03-21T10:58:58;11.10;99.90
15083;DHT22;7640;53.116;6.878;2023-03-21T11:01:30;11.10;99.90
15083;DHT22;7640;53.116;6.878;2023-03-21T11:04:07;11.10;99.90
15083;DHT22;7640;53.116;6.878;2023-03-21T11:06:38;11.10;99.90
15083;DHT22;7640;53.116;6.878;2023-03-21T11:09:13;11.10;99.90
15083;DHT22;7640;53.116;6.878;2023-03-21T11:11:50;11.20;99.90
15083;DHT22;7640;53.116;6.878;2023-03-21T11:14:31;11.30;99.90
15083;DHT22;7640;53.116;6.878;2023-03-21T11:17:17;11.30;99.90
15083;DHT22;7640;53.116;6.878;2023-03-21T11:19:52;11.40;99.90
15083;DHT22;7640;53.116;6.878;2023-03-21T11:22:26;11.50;99.90
15083;DHT22;7640;53.116;6.878;2023-03-21T11:24:59;11.50;99.90
15083;DHT22;7640;53.116;6.878;2023-03-21T11:27:28;11.50;99.90
15083;DHT22;7640;53.116;6.878;2023-03-21T11:30:01;11.60;99.90
15083;DHT22;7640;53.116;6.878;2023-03-21T11:32:38;11.60;99.90
15083;DHT22;7640;53.116;6.878;2023-03-21T11:35:14;11.70;99.90
15083;DHT22;7640;53.116;6.878;2023-03-21T11:37:50;11.80;99.90
15083;DHT22;7640;53.116;6.878;2023-03-21T11:40:22;11.90;99.90
15083;DHT22;7640;53.116;6.878;2023-03-21T11:42:55;12.00;99.90
15083;DHT22;7640;53.116;6.878;2023-03-21T11:45:27;12.00;99.90
15083;DHT22;7640;53.116;6.878;2023-03-21T11:47:58;12.10;99.90
15083;DHT22;7640;53.116;6.878;2023-03-21T11:50:31;12.20;99.90
15083;DHT22;7640;53.116;6.878;2023-03-21T11:53:17;12.30;99.90
15083;DHT22;7640;53.116;6.878;2023-03-21T11:56:03;12.40;99.90
15083;DHT22;7640;53.116;6.878;2023-03-21T11:58:45;12.50;99.90
15083;DHT22;7640;53.116;6.878;2023-03-21T12:01:29;12.60;99.90
15083;DHT22;7640;53.116;6.878;2023-03-21T12:04:25;12.60;99.90
15083;DHT22;7640;53.116;6.878;2023-03-21T12:07:11;12.60;99.90
15083;DHT22;7640;53.116;6.878;2023-03-21T12:09:50;12.60;99.90
15083;DHT22;7640;53.116;6.878;2023-03-21T12:12:33;12.60;99.90
15083;DHT22;7640;53.116;6.878;2023-03-21T12:15:14;12.70;99.90
15083;DHT22;7640;53.116;6.878;2023-03-21T12:17:53;12.70;99.90
15083;DHT22;7640;53.116;6.878;2023-03-21T12:20:38;12.70;99.90
15083;DHT22;7640;53.116;6.878;2023-03-21T12:23:41;12.70;99.90
15083;DHT22;7640;53.116;6.878;2023-03-21T12:26:21;12.80;99.90
15083;DHT22;7640;53.116;6.878;2023-03-21T12:29:27;12.80;99.90
15083;DHT22;7640;53.116;6.878;2023-03-21T12:32:09;12.80;99.90
15083;DHT22;7640;53.116;6.878;2023-03-21T12:35:07;12.90;99.90
15083;DHT22;7640;53.116;6.878;2023-03-21T12:37:52;13.00;99.90
15083;DHT22;7640;53.116;6.878;2023-03-21T12:40:38;13.00;99.90
15083;DHT22;7640;53.116;6.878;2023-03-21T12:43:30;13.00;99.90
15083;DHT22;7640;53.116;6.878;2023-03-21T12:46:04;13.00;99.90
15083;DHT22;7640;53.116;6.878;2023-03-21T12:48:40;13.00;99.90
15083;DHT22;7640;53.116;6.878;2023-03-21T12:51:15;13.00;99.90
15083;DHT22;7640;53.116;6.878;2023-03-21T12:53:59;13.00;99.90
15083;DHT22;7640;53.116;6.878;2023-03-21T12:56:34;12.90;99.90
15083;DHT22;7640;53.116;6.878;2023-03-21T12:59:12;12.80;99.90
15083;DHT22;7640;53.116;6.878;2023-03-21T13:01:50;12.70;99.90
15083;DHT22;7640;53.116;6.878;2023-03-21T13:04:37;12.70;99.90
15083;DHT22;7640;53.116;6.878;2023-03-21T13:07:13;12.60;99.90
15083;DHT22;7640;53.116;6.878;2023-03-21T13:09:43;12.60;99.90
15083;DHT22;7640;53.116;6.878;2023-03-21T13:15:24;12.60;99.90
15083;DHT22;7640;53.116;6.878;2023-03-21T13:18:03;12.70;99.90
15083;DHT22;7640;53.116;6.878;2023-03-21T13:20:43;12.70;99.90
15083;DHT22;7640;53.116;6.878;2023-03-21T13:23:16;12.70;99.90
15083;DHT22;7640;53.116;6.878;2023-03-21T13:25:47;12.80;99.90
15083;DHT22;7640;53.116;6.878;2023-03-21T13:28:20;12.90;99.90
15083;DHT22;7640;53.116;6.878;2023-03-21T13:30:49;12.90;99.90
15083;DHT22;7640;53.116;6.878;2023-03-21T13:33:22;12.90;99.90
15083;DHT22;7640;53.116;6.878;2023-03-21T13:35:59;12.90;99.90
15083;DHT22;7640;53.116;6.878;2023-03-21T13:38:34;12.90;99.90
15083;DHT22;7640;53.116;6.878;2023-03-21T13:41:07;13.00;99.90
15083;DHT22;7640;53.116;6.878;2023-03-21T13:43:49;13.10;99.90
15083;DHT22;7640;53.116;6.878;2023-03-21T13:46:42;13.20;99.90
15083;DHT22;7640;53.116;6.878;2023-03-21T13:49:30;13.30;99.90
15083;DHT22;7640;53.116;6.878;2023-03-21T13:52:02;13.40;99.90
15083;DHT22;7640;53.116;6.878;2023-03-21T13:54:54;13.50;99.90
15083;DHT22;7640;53.116;6.878;2023-03-21T13:57:36;13.50;99.90
15083;DHT22;7640;53.116;6.878;2023-03-21T14:00:20;13.60;99.90
15083;DHT22;7640;53.116;6.878;2023-03-21T14:02:55;13.60;99.90
15083;DHT22;7640;53.116;6.878;2023-03-21T14:05:27;13.70;99.90
15083;DHT22;7640;53.116;6.878;2023-03-21T14:07:59;13.70;99.90
15083;DHT22;7640;53.116;6.878;2023-03-21T14:10:44;13.70;99.90
15083;DHT22;7640;53.116;6.878;2023-03-21T14:13:18;13.60;99.90
15083;DHT22;7640;53.116;6.878;2023-03-21T14:15:51;13.60;99.90
15083;DHT22;7640;53.116;6.878;2023-03-21T14:18:23;13.60;99.90
15083;DHT22;7640;53.116;6.878;2023-03-21T14:21:01;13.60;99.90
15083;DHT22;7640;53.116;6.878;2023-03-21T14:23:37;13.60;99.90
15083;DHT22;7640;53.116;6.878;2023-03-21T14:26:09;13.60;99.90
15083;DHT22;7640;53.116;6.878;2023-03-21T14:28:40;13.60;99.90
15083;DHT22;7640;53.116;6.878;2023-03-21T14:31:17;13.60;99.90
15083;DHT22;7640;53.116;6.878;2023-03-21T14:33:49;13.70;99.90
15083;DHT22;7640;53.116;6.878;2023-03-21T14:36:22;13.80;99.90
15083;DHT22;7640;53.116;6.878;2023-03-21T14:39:04;13.80;99.90
15083;DHT22;7640;53.116;6.878;2023-03-21T14:41:44;14.00;99.90
15083;DHT22;7640;53.116;6.878;2023-03-21T14:44:17;14.10;99.90
15083;DHT22;7640;53.116;6.878;2023-03-21T14:46:53;14.20;99.90
15083;DHT22;7640;53.116;6.878;2023-03-21T14:49:29;14.40;99.90
15083;DHT22;7640;53.116;6.878;2023-03-21T14:52:00;14.90;99.90
15083;DHT22;7640;53.116;6.878;2023-03-21T14:54:32;15.30;99.90
15083;DHT22;7640;53.116;6.878;2023-03-21T14:57:07;15.60;99.90
15083;DHT22;7640;53.116;6.878;2023-03-21T14:59:39;15.80;99.90
15083;DHT22;7640;53.116;6.878;2023-03-21T15:02:15;15.90;99.90
15083;DHT22;7640;53.116;6.878;2023-03-21T15:04:49;16.00;99.90
15083;DHT22;7640;53.116;6.878;2023-03-21T15:07:24;15.80;99.90
15083;DHT22;7640;53.116;6.878;2023-03-21T15:09:57;15.70;99.90
15083;DHT22;7640;53.116;6.878;2023-03-21T15:12:28;15.40;99.90
15083;DHT22;7640;53.116;6.878;2023-03-21T15:14:57;15.30;99.90
15083;DHT22;7640;53.116;6.878;2023-03-21T15:17:27;15.10;99.90
15083;DHT22;7640;53.116;6.878;2023-03-21T15:19:57;14.90;99.90
15083;DHT22;7640;53.116;6.878;2023-03-21T15:22:30;14.80;99.90
15083;DHT22;7640;53.116;6.878;2023-03-21T15:25:03;14.80;99.90
15083;DHT22;7640;53.116;6.878;2023-03-21T15:27:38;14.70;99.90
15083;DHT22;7640;53.116;6.878;2023-03-21T15:30:18;14.60;99.90
15083;DHT22;7640;53.116;6.878;2023-03-21T15:32:47;14.50;99.90
15083;DHT22;7640;53.116;6.878;2023-03-21T15:35:20;14.40;99.90
15083;DHT22;7640;53.116;6.878;2023-03-21T15:37:54;14.30;99.90
15083;DHT22;7640;53.116;6.878;2023-03-21T15:40:26;14.30;99.90
15083;DHT22;7640;53.116;6.878;2023-03-21T15:43:05;14.20;99.90
15083;DHT22;7640;53.116;6.878;2023-03-21T15:45:46;14.20;99.90
15083;DHT22;7640;53.116;6.878;2023-03-21T15:48:17;14.20;99.90
15083;DHT22;7640;53.116;6.878;2023-03-21T15:50:55;14.10;99.90
15083;DHT22;7640;53.116;6.878;2023-03-21T15:53:25;14.00;99.90
15083;DHT22;7640;53.116;6.878;2023-03-21T15:55:57;13.90;99.90
15083;DHT22;7640;53.116;6.878;2023-03-21T15:58:34;13.90;99.90
15083;DHT22;7640;53.116;6.878;2023-03-21T16:01:07;13.90;99.90
15083;DHT22;7640;53.116;6.878;2023-03-21T16:03:42;13.80;99.90
15083;DHT22;7640;53.116;6.878;2023-03-21T16:06:17;13.80;99.90
15083;DHT22;7640;53.116;6.878;2023-03-21T16:08:52;13.70;99.90
15083;DHT22;7640;53.116;6.878;2023-03-21T16:11:24;13.80;99.90
15083;DHT22;7640;53.116;6.878;2023-03-21T16:13:57;13.70;99.90
15083;DHT22;7640;53.116;6.878;2023-03-21T16:16:28;13.70;99.90
15083;DHT22;7640;53.116;6.878;2023-03-21T16:18:59;13.70;99.90
15083;DHT22;7640;53.116;6.878;2023-03-21T16:21:30;13.70;99.90
15083;DHT22;7640;53.116;6.878;2023-03-21T16:24:00;13.60;99.90
15083;DHT22;7640;53.116;6.878;2023-03-21T16:26:30;13.60;99.90
15083;DHT22;7640;53.116;6.878;2023-03-21T16:29:03;13.60;99.90
15083;DHT22;7640;53.116;6.878;2023-03-21T16:31:35;13.60;99.90
15083;DHT22;7640;53.116;6.878;2023-03-21T16:34:04;13.60;99.90
15083;DHT22;7640;53.116;6.878;2023-03-21T16:36:34;13.50;99.90